createdAt,value
2017-12-05T05:23:59.023Z,96181.42
2017-12-05T05:26:26.698Z,96188.48
2017-12-05T05:28:54.278Z,96183.82
2017-12-05T05:31:21.919Z,96185.12
2017-12-05T05:33:49.737Z,96188.90
2017-12-05T05:36:17.596Z,96183.14
2017-12-05T05:38:45.998Z,96177.69
2017-12-05T05:41:14.503Z,96183.05
2017-12-05T05:43:42.111Z,96193.67
2017-12-05T05:46:09.713Z,96192.03
2017-12-05T05:48:37.785Z,96189.23
2017-12-05T05:51:05.403Z,96188.34
2017-12-05T05:53:33.071Z,96205.98
2017-12-05T05:56:00.647Z,96208.12
2017-12-05T05:58:28.296Z,96202.25
2017-12-05T06:00:56.145Z,96184.09
2017-12-05T06:03:24.426Z,96185.18
2017-12-05T06:05:52.043Z,96193.05
2017-12-05T06:08:20.536Z,96203.06
2017-12-05T06:10:48.079Z,96212.27
2017-12-05T06:13:15.716Z,96213.45
2017-12-05T06:15:43.353Z,96216.80
2017-12-05T06:18:10.908Z,96227.05
2017-12-05T06:20:39.178Z,96243.73
2017-12-05T06:23:06.806Z,96243.59
2017-12-05T06:25:34.429Z,96232.11
2017-12-05T06:28:02.016Z,96233.61
2017-12-05T06:30:29.799Z,96233.88
2017-12-05T06:32:57.387Z,96231.14
2017-12-05T06:35:24.957Z,96240.67
2017-12-05T06:37:52.544Z,96240.16
2017-12-05T06:40:20.349Z,96223.05
2017-12-05T06:42:47.974Z,96230.26
2017-12-05T06:45:15.614Z,96233.05
2017-12-05T06:47:43.264Z,96229.08
2017-12-05T06:50:10.908Z,96231.08
2017-12-05T06:52:38.899Z,96234.14
2017-12-05T06:55:06.573Z,96236.14
2017-12-05T06:57:34.348Z,96245.20
2017-12-05T07:00:02.014Z,96243.88
2017-12-05T07:02:29.791Z,96250.82
2017-12-05T07:04:57.611Z,96251.77
2017-12-05T07:07:25.311Z,96249.21
2017-12-05T07:09:52.970Z,96259.63
2017-12-05T07:12:20.631Z,96263.50
2017-12-05T07:14:48.331Z,96266.70
2017-12-05T07:17:15.937Z,96267.11
2017-12-05T07:19:43.556Z,96271.52
2017-12-05T07:22:11.162Z,96263.50
2017-12-05T07:24:38.971Z,96268.31
2017-12-05T07:27:06.590Z,96259.91
2017-12-05T07:29:34.138Z,96261.49
2017-12-05T07:32:01.974Z,96267.11
2017-12-05T07:34:29.598Z,96258.13
2017-12-05T07:36:57.180Z,96256.83
2017-12-05T07:39:25.592Z,96242.64
2017-12-05T07:41:53.231Z,96243.14
2017-12-05T07:44:20.801Z,96239.52
2017-12-05T07:46:48.601Z,96243.52
2017-12-05T07:49:16.946Z,96242.75
2017-12-05T07:51:44.566Z,96241.48
2017-12-05T07:54:12.197Z,96236.25
2017-12-05T07:56:41.646Z,96243.92
2017-12-05T07:59:09.240Z,96241.84
2017-12-05T08:01:36.861Z,96248.16
2017-12-05T08:04:05.284Z,96251.73
2017-12-05T08:06:33.111Z,96253.40
2017-12-05T08:09:00.769Z,96246.23
2017-12-05T08:11:28.342Z,96249.98
2017-12-05T08:13:55.978Z,96241.59
2017-12-05T08:16:23.545Z,96234.94
2017-12-05T08:18:52.117Z,96236.95
2017-12-05T08:21:19.733Z,96245.07
2017-12-05T08:23:47.384Z,96255.56
2017-12-05T08:26:14.945Z,96257.53
2017-12-05T08:28:43.214Z,96260.67
2017-12-05T08:31:12.285Z,96253.37
2017-12-05T08:33:39.951Z,96258.13
2017-12-05T08:36:07.483Z,96268.69
2017-12-05T08:38:35.151Z,96264.89
2017-12-05T08:41:02.787Z,96266.44
2017-12-05T08:43:30.503Z,96266.09
2017-12-05T08:45:58.134Z,96262.56
2017-12-05T08:48:25.720Z,96274.45
2017-12-05T08:50:53.849Z,96277.45
2017-12-05T08:53:21.505Z,96284.36
2017-12-05T08:55:49.078Z,96275.99
2017-12-05T08:58:16.683Z,96280.95
2017-12-05T09:00:44.288Z,96281.77
2017-12-05T09:03:11.827Z,96285.12
2017-12-05T09:05:39.437Z,96279.78
2017-12-05T09:08:07.037Z,96282.05
2017-12-05T09:10:35.810Z,96285.94
2017-12-05T09:13:03.893Z,96284.87
2017-12-05T09:15:31.763Z,96280.71
2017-12-05T09:18:00.745Z,96290.70
2017-12-05T09:20:28.319Z,96285.77
2017-12-05T09:22:55.938Z,96286.53
2017-12-05T09:25:23.643Z,96276.65
2017-12-05T09:27:52.133Z,96278.48
2017-12-05T09:30:20.754Z,96276.02
2017-12-05T09:32:48.625Z,96269.05
2017-12-05T09:35:16.438Z,96265.33
2017-12-05T09:37:44.049Z,96278.53
2017-12-05T09:40:11.632Z,96278.55
2017-12-05T09:42:40.575Z,96272.42
2017-12-05T09:45:08.185Z,96261.07
2017-12-05T09:47:35.756Z,96266.39
2017-12-05T09:50:03.406Z,96262.09
2017-12-05T09:52:32.338Z,96260.75
2017-12-05T09:55:00.370Z,96264.28
2017-12-05T09:57:27.945Z,96275.38
2017-12-05T09:59:55.608Z,96261.14
2017-12-05T10:02:23.818Z,96271.09
2017-12-05T10:04:51.950Z,96265.05
2017-12-05T10:07:19.747Z,96258.23
2017-12-05T10:09:47.391Z,96261.76
2017-12-05T10:12:15.024Z,96261.49
2017-12-05T10:14:42.665Z,96258.09
2017-12-05T10:17:10.292Z,96255.16
2017-12-05T10:19:37.993Z,96243.19
2017-12-05T10:22:05.898Z,96247.19
2017-12-05T10:24:33.601Z,96244.55
2017-12-05T10:27:01.228Z,96256.66
2017-12-05T10:29:28.865Z,96257.80
2017-12-05T10:31:56.757Z,96254.83
2017-12-05T10:34:24.941Z,96261.89
2017-12-05T10:36:52.496Z,96262.69
2017-12-05T10:39:20.298Z,96273.84
2017-12-05T10:41:48.942Z,96268.75
2017-12-05T10:44:16.771Z,96259.86
2017-12-05T10:46:44.471Z,96256.16
2017-12-05T10:49:12.256Z,96253.10
2017-12-05T10:51:39.843Z,96244.41
2017-12-05T10:54:07.481Z,96228.11
2017-12-05T10:56:35.281Z,96238.80
2017-12-05T10:59:04.078Z,96231.83
2017-12-05T11:01:32.042Z,96249.81
2017-12-05T11:03:59.681Z,96232.23
2017-12-05T11:06:27.660Z,96238.53
2017-12-05T11:08:55.278Z,96248.55
2017-12-05T11:11:23.050Z,96246.62
2017-12-05T11:13:51.669Z,96234.23
2017-12-05T11:16:19.273Z,96239.20
2017-12-05T11:18:47.605Z,96246.86
2017-12-05T11:21:15.211Z,96241.58
2017-12-05T11:23:43.135Z,96231.48
2017-12-05T11:26:10.718Z,96243.87
2017-12-05T11:28:38.705Z,96242.59
2017-12-05T11:31:10.123Z,96237.53
2017-12-05T11:33:38.728Z,96238.52
2017-12-05T11:36:06.385Z,96234.47
2017-12-05T11:38:33.972Z,96249.47
2017-12-05T11:41:01.677Z,96244.84
2017-12-05T11:43:29.315Z,96242.10
2017-12-05T11:45:58.175Z,96226.55
2017-12-05T11:48:25.916Z,96234.56
2017-12-05T11:50:53.637Z,96232.73
2017-12-05T11:53:21.383Z,96229.63
2017-12-05T11:55:49.078Z,96232.62
2017-12-05T11:58:16.775Z,96230.22
2017-12-05T12:00:46.102Z,96233.92
2017-12-05T12:03:14.026Z,96238.35
2017-12-05T12:05:42.182Z,96237.55
2017-12-05T12:08:09.917Z,96236.63
2017-12-05T12:10:37.597Z,96234.78
2017-12-05T12:13:05.279Z,96233.78
2017-12-05T12:20:08.263Z,96246.02
2017-12-05T12:22:35.951Z,96231.94
2017-12-05T12:25:05.353Z,96248.45
2017-12-05T12:27:32.991Z,96248.63
2017-12-05T12:30:00.666Z,96254.73
2017-12-05T12:32:28.837Z,96260.30
2017-12-05T12:34:58.146Z,96254.38
2017-12-05T12:37:25.784Z,96275.91
2017-12-05T12:39:53.873Z,96267.88
2017-12-05T12:42:21.543Z,96276.88
2017-12-05T12:44:49.534Z,96271.77
2017-12-05T12:47:17.234Z,96272.44
2017-12-05T12:49:45.058Z,96269.56
2017-12-05T12:52:12.872Z,96275.42
2017-12-05T12:54:40.576Z,96268.91
2017-12-05T12:57:08.205Z,96277.75
2017-12-05T12:59:35.873Z,96286.98
2017-12-05T13:02:03.681Z,96272.53
2017-12-05T13:04:31.518Z,96280.30
2017-12-05T13:06:59.252Z,96284.03
2017-12-05T13:09:26.902Z,96284.55
2017-12-05T13:11:55.469Z,96275.89
2017-12-05T13:14:23.258Z,96271.64
2017-12-05T13:16:51.251Z,96280.03
2017-12-05T13:19:18.950Z,96284.44
2017-12-05T13:21:46.825Z,96293.79
2017-12-05T13:24:14.529Z,96286.58
2017-12-05T13:26:42.183Z,96286.45
2017-12-05T13:29:10.082Z,96291.12
2017-12-05T13:31:37.812Z,96306.62
2017-12-05T13:34:05.460Z,96303.30
2017-12-05T13:36:33.469Z,96303.82
2017-12-05T13:39:01.131Z,96305.03
2017-12-05T13:41:28.868Z,96311.71
2017-12-05T13:43:56.482Z,96308.20
2017-12-05T13:46:24.969Z,96322.09
2017-12-05T13:48:53.513Z,96323.70
2017-12-05T13:51:21.349Z,96324.78
2017-12-05T13:53:50.208Z,96324.63
2017-12-05T13:56:17.830Z,96332.52
2017-12-05T13:58:45.512Z,96325.71
2017-12-05T14:01:13.229Z,96326.39
2017-12-05T14:03:41.084Z,96325.44
2017-12-05T14:06:08.739Z,96325.73
2017-12-05T14:08:36.414Z,96331.20
2017-12-05T14:11:04.642Z,96326.64
2017-12-05T14:13:32.333Z,96327.72
2017-12-05T14:16:00.211Z,96332.09
2017-12-05T14:18:27.915Z,96338.25
2017-12-05T14:20:55.712Z,96343.97
2017-12-05T14:23:23.716Z,96350.00
2017-12-05T14:29:29.707Z,96349.34
2017-12-05T14:31:57.543Z,96358.36
2017-12-05T14:34:25.241Z,96361.58
2017-12-05T14:36:52.874Z,96343.45
2017-12-05T14:39:22.228Z,96355.44
2017-12-05T14:41:55.940Z,96359.16
2017-12-05T14:44:25.556Z,96364.34
2017-12-05T14:46:54.534Z,96365.83
2017-12-05T14:49:22.490Z,96365.52
2017-12-05T14:51:50.947Z,96376.27
2017-12-05T14:54:52.910Z,96363.90
2017-12-05T14:57:20.675Z,96374.27
2017-12-05T14:59:48.300Z,96374.26
2017-12-05T15:02:15.998Z,96376.98
2017-12-05T15:04:44.967Z,96383.98
2017-12-05T15:07:12.615Z,96388.91
2017-12-05T15:09:44.956Z,96383.97
2017-12-05T15:12:12.651Z,96379.44
2017-12-05T15:14:40.341Z,96385.47
2017-12-05T15:17:09.051Z,96387.89
2017-12-05T15:19:36.722Z,96390.61
2017-12-05T15:22:04.365Z,96395.81
2017-12-05T15:24:32.200Z,96394.76
2017-12-05T15:27:00.625Z,96400.95
2017-12-05T15:29:30.098Z,96403.60
2017-12-05T15:32:08.266Z,96409.63
2017-12-05T15:34:36.982Z,96422.62
2017-12-05T15:37:06.304Z,96419.05
2017-12-05T15:39:34.022Z,96408.88
2017-12-05T15:42:01.958Z,96409.84
2017-12-05T15:44:30.622Z,96412.14
2017-12-05T15:46:58.356Z,96421.09
2017-12-05T15:49:26.087Z,96420.94
2017-12-05T15:51:53.723Z,96419.97
2017-12-05T15:54:21.447Z,96430.89
2017-12-05T15:56:49.657Z,96422.48
2017-12-05T15:59:17.300Z,96430.35
2017-12-05T16:01:45.685Z,96432.95
2017-12-05T16:04:14.932Z,96438.17
2017-12-05T16:06:42.853Z,96442.91
2017-12-05T16:09:13.147Z,96440.49
2017-12-05T16:11:49.575Z,96438.61
2017-12-05T16:14:17.220Z,96443.08
2017-12-05T16:16:46.162Z,96441.80
2017-12-05T16:21:47.609Z,96444.58
2017-12-05T16:24:16.394Z,96426.30
2017-12-05T16:26:44.055Z,96432.53
2017-12-05T16:29:16.532Z,96448.97
2017-12-05T16:31:55.844Z,96445.55
2017-12-05T16:34:23.525Z,96446.19
2017-12-05T16:37:19.032Z,96450.84
2017-12-05T16:39:50.682Z,96450.63
2017-12-05T16:42:22.459Z,96454.20
2017-12-05T16:44:51.537Z,96459.87
2017-12-05T16:47:21.948Z,96467.68
2017-12-05T16:49:50.592Z,96473.52
2017-12-05T16:52:21.463Z,96472.77
2017-12-05T16:54:49.254Z,96479.84
2017-12-05T16:57:20.217Z,96468.38
2017-12-05T16:59:48.434Z,96471.76
2017-12-05T17:02:16.468Z,96470.09
2017-12-05T17:04:44.138Z,96479.92
2017-12-05T17:07:11.884Z,96477.33
2017-12-05T17:09:53.195Z,96484.27
2017-12-05T17:16:04.307Z,96493.84
2017-12-05T17:18:32.189Z,96494.03
2017-12-05T17:21:03.284Z,96499.10
2017-12-05T17:23:34.181Z,96504.23
2017-12-05T17:26:02.783Z,96491.23
2017-12-05T17:28:31.370Z,96495.41
2017-12-05T17:31:00.031Z,96510.88
2017-12-05T17:33:37.171Z,96515.72
2017-12-05T17:46:03.628Z,96511.54
2017-12-05T17:48:32.081Z,96508.22
2017-12-05T17:51:00.369Z,96512.06
2017-12-05T17:53:28.298Z,96501.70
2017-12-05T17:55:57.908Z,96513.91
2017-12-05T17:58:25.802Z,96506.77
2017-12-05T18:00:53.609Z,96512.47
2017-12-05T18:03:21.282Z,96522.25
2017-12-05T18:05:50.419Z,96516.75
2017-12-05T18:08:19.942Z,96512.79
2017-12-05T18:10:47.927Z,96514.27
2017-12-05T18:13:15.687Z,96522.95
2017-12-05T18:15:43.541Z,96527.79
2017-12-05T18:18:11.603Z,96524.34
2017-12-05T18:20:39.378Z,96512.69
2017-12-05T18:23:07.833Z,96524.95
2017-12-05T18:25:36.140Z,96534.53
2017-12-05T18:28:03.843Z,96536.79
2017-12-05T18:30:31.607Z,96535.97
2017-12-05T18:33:03.687Z,96530.39
2017-12-05T18:35:32.295Z,96533.58
2017-12-05T18:38:03.863Z,96526.52
2017-12-05T18:40:31.733Z,96532.33
2017-12-05T18:43:00.497Z,96533.02
2017-12-05T18:45:28.251Z,96539.73
2017-12-05T18:47:57.275Z,96543.75
2017-12-05T18:50:25.711Z,96546.77
2017-12-05T18:52:55.028Z,96547.47
2017-12-05T18:55:44.304Z,96547.81
2017-12-05T18:58:15.940Z,96548.99
2017-12-05T19:00:44.972Z,96559.12
2017-12-05T19:03:16.020Z,96561.96
2017-12-05T19:05:43.978Z,96552.89
2017-12-05T19:08:12.476Z,96564.90
2017-12-05T19:10:40.230Z,96567.72
2017-12-05T19:13:08.812Z,96572.97
2017-12-05T19:15:38.261Z,96574.18
2017-12-05T19:18:07.159Z,96573.11
2017-12-05T19:20:34.913Z,96580.69
2017-12-05T19:23:03.250Z,96580.94
2017-12-05T19:25:34.527Z,96568.59
2017-12-05T19:28:02.912Z,96583.91
2017-12-05T19:30:30.873Z,96582.02
2017-12-05T19:33:23.528Z,96572.12
2017-12-05T19:39:02.885Z,96566.55
2017-12-05T19:41:37.084Z,96576.80
2017-12-05T19:58:13.759Z,96591.83
2017-12-05T20:21:32.582Z,96602.27
2017-12-05T20:30:50.875Z,96605.66
2017-12-05T20:36:52.423Z,96611.59
2017-12-05T20:39:22.673Z,96603.39
2017-12-05T20:41:53.377Z,96613.25
2017-12-05T20:44:22.209Z,96619.33
2017-12-05T20:52:05.580Z,96607.09
2017-12-05T20:57:16.442Z,96606.45
2017-12-05T20:59:46.328Z,96610.69
2017-12-05T21:02:18.598Z,96597.46
2017-12-05T21:04:48.075Z,96608.52
2017-12-05T21:07:20.496Z,96598.84
2017-12-05T21:09:52.869Z,96598.84
2017-12-05T21:12:21.435Z,96605.69
2017-12-05T21:14:53.711Z,96607.34
2017-12-05T21:17:24.864Z,96602.86
2017-12-05T21:19:55.495Z,96611.58
2017-12-05T21:26:22.079Z,96622.20
2017-12-05T21:28:52.039Z,96616.31
2017-12-05T21:31:29.943Z,96589.30
2017-12-05T21:37:37.529Z,96618.55
2017-12-05T21:49:36.508Z,96618.38
2017-12-05T21:52:14.320Z,96613.30
2017-12-05T21:58:18.739Z,96612.52
2017-12-05T22:03:46.753Z,96616.94
2017-12-05T22:38:14.233Z,96612.69
2017-12-05T22:40:42.001Z,96616.76
2017-12-05T22:43:10.144Z,96612.67
2017-12-05T22:45:37.913Z,96609.09
2017-12-05T22:48:05.636Z,96603.61
2017-12-05T22:50:33.435Z,96607.75
2017-12-05T22:53:01.299Z,96610.87
2017-12-05T22:55:29.301Z,96603.80
2017-12-05T23:00:29.528Z,96598.28
2017-12-05T23:02:59.127Z,96591.29
2017-12-05T23:05:27.172Z,96586.63
2017-12-05T23:07:55.087Z,96593.56
2017-12-05T23:10:23.276Z,96593.17
2017-12-05T23:12:51.408Z,96594.39
2017-12-05T23:15:19.896Z,96596.98
2017-12-05T23:17:47.623Z,96589.48
2017-12-05T23:20:15.361Z,96599.17
2017-12-05T23:22:42.986Z,96591.55
2017-12-05T23:25:10.661Z,96591.51
2017-12-05T23:27:38.536Z,96589.44
2017-12-05T23:30:07.200Z,96587.08
2017-12-05T23:32:37.780Z,96585.17
2017-12-05T23:35:06.555Z,96586.45
2017-12-05T23:37:34.599Z,96579.77
2017-12-05T23:40:02.304Z,96564.84
2017-12-05T23:42:30.100Z,96569.97
2017-12-05T23:44:59.675Z,96577.36
2017-12-05T23:47:28.769Z,96567.06
2017-12-05T23:49:56.639Z,96568.41
2017-12-05T23:52:24.603Z,96575.12
2017-12-05T23:54:52.419Z,96571.25
2017-12-05T23:57:20.276Z,96569.42
2017-12-05T23:59:48.561Z,96568.84
